Wink, TX

8:54 PM CDT on August 27, 2015 (GMT -0500)
Winkler County | | Change Station
CLOSE
Current Station
Airport
Location: Wink,
Elevation: 2822 ft
Nearby Weather Stations

Elev 2822 ft 31.78 °N, 103.20 °W | Updated 1 hour ago

Partly Cloudy
Partly Cloudy
95 °F
Feels Like 95 °F
N
14
Wind Variable Wind from ESE

Today
High -- | Low -- °F
--% Chance of Precip.
Yesterday
High -- | Low -- °F
Precip. -- in
7:25 AM 8:22 PM
Waxing Gibbous, 96% visible
Pressure 29.83 in
Visibility 10.0 miles
Clouds Clear
Dew Point 46 °F
Humidity 19%
Rainfall 0.00 in
Snow Depth Not available.
UV 0 out of 12
Pollen 8.60 out of 12
Air Quality Not available.
Flu Activity Not available.
METAR KINK 280053Z AUTO 11012KT 10SM CLR 35/08 A2998 RMK AO2 SLP102 T03500078
Pressure 29.83 in
Visibility 10.0 miles
Clouds Clear
Dew Point 46 °F
Humidity 19%
Rainfall 0.00 in
Snow Depth Not available.
UV 0 out of 12
Pollen 8.60 out of 12
Air Quality Not available.
Flu Activity Not available.
METAR KINK 280053Z AUTO 11012KT 10SM CLR 35/08 A2998 RMK AO2 SLP102 T03500078

10-Day Weather Forecast

×

Almanac

Astronomy

Aug. 27, 2015 Rise Set
Actual Time
Civil Twilight
Nautical Twilight
Astronomical Twilight
Moon
Length of Visible Light
Length of Day
Tomorrow will be .
, % of the Moon is Illuminated

Today's Extremes

State Highs State Lows

Community

WunderPhotos

Upload Photos

1,850,296 photos uploaded!

WunderBlogs® & News

Nearby

Air Quality

  Air Quality AQ Index Pollutant
Not available.

Snow Depth

Station Depth Elevation

Earthquake Activity

City Distance Mag. Time & Date
Minimum magnitude displayed is 2.5.

Coastal Water Temperatures

Place Temperature

Stations

Nearby Weather Stations

Station Location Temp. Windchill Dew Point Humidity Wind Precip. Elev Updated Type